sensor_id;sensor_type;location;lat;lon;timestamp;noise_LAeq;noise_LA_min;noise_LA_max;noise_LA01;noise_LA95
66455;Laerm;57651;51.438;5.982;2022-09-30T00:03:23;36.73;35.46;38.61;;
66455;Laerm;57651;51.438;5.982;2022-09-30T00:03:34;36.76;35.68;38.24;;
66455;Laerm;57651;51.438;5.982;2022-09-30T00:03:53;36.72;35.49;38.50;;
66455;Laerm;57651;51.438;5.982;2022-09-30T00:04:04;36.75;35.54;38.82;;
66455;Laerm;57651;51.438;5.982;2022-09-30T00:04:16;36.73;35.49;38.56;;
66455;Laerm;57651;51.438;5.982;2022-09-30T00:04:41;36.74;35.63;38.34;;
66455;Laerm;57651;51.438;5.982;2022-09-30T00:04:51;36.74;35.51;39.42;;
66455;Laerm;57651;51.438;5.982;2022-09-30T00:05:02;36.75;35.67;38.56;;
66455;Laerm;57651;51.438;5.982;2022-09-30T00:05:14;36.76;35.63;38.41;;
66455;Laerm;57651;51.438;5.982;2022-09-30T00:05:24;36.80;35.73;38.85;;
66455;Laerm;57651;51.438;5.982;2022-09-30T00:05:35;36.79;35.66;38.75;;
66455;Laerm;57651;51.438;5.982;2022-09-30T00:06:20;36.73;35.38;39.04;;
66455;Laerm;57651;51.438;5.982;2022-09-30T00:06:32;36.68;35.70;38.49;;
66455;Laerm;57651;51.438;5.982;2022-09-30T00:07:31;36.72;35.41;38.86;;
66455;Laerm;57651;51.438;5.982;2022-09-30T00:07:42;36.67;35.51;38.54;;
66455;Laerm;57651;51.438;5.982;2022-09-30T00:07:53;36.70;35.55;38.51;;
66455;Laerm;57651;51.438;5.982;2022-09-30T00:10:04;36.71;35.55;38.81;;
66455;Laerm;57651;51.438;5.982;2022-09-30T00:10:16;36.66;35.47;38.56;;
66455;Laerm;57651;51.438;5.982;2022-09-30T00:10:26;36.74;35.67;38.64;;
66455;Laerm;57651;51.438;5.982;2022-09-30T00:12:57;36.70;35.42;38.72;;
66455;Laerm;57651;51.438;5.982;2022-09-30T00:13:08;36.71;35.42;38.50;;
66455;Laerm;57651;51.438;5.982;2022-09-30T00:13:19;36.72;35.67;38.50;;
66455;Laerm;57651;51.438;5.982;2022-09-30T00:13:33;36.68;35.45;38.45;;
66455;Laerm;57651;51.438;5.982;2022-09-30T00:13:54;36.71;35.75;38.43;;
66455;Laerm;57651;51.438;5.982;2022-09-30T00:14:07;36.70;35.38;39.03;;
66455;Laerm;57651;51.438;5.982;2022-09-30T00:14:20;36.74;35.53;38.68;;
66455;Laerm;57651;51.438;5.982;2022-09-30T00:14:31;36.72;35.51;38.40;;
66455;Laerm;57651;51.438;5.982;2022-09-30T00:14:44;36.66;35.63;39.28;;
66455;Laerm;57651;51.438;5.982;2022-09-30T00:14:58;36.72;35.60;38.33;;
66455;Laerm;57651;51.438;5.982;2022-09-30T00:15:09;36.73;35.52;38.58;;
66455;Laerm;57651;51.438;5.982;2022-09-30T00:15:20;36.70;35.57;38.21;;
66455;Laerm;57651;51.438;5.982;2022-09-30T00:15:36;36.66;35.44;38.20;;
66455;Laerm;57651;51.438;5.982;2022-09-30T00:15:47;36.70;35.51;39.18;;
66455;Laerm;57651;51.438;5.982;2022-09-30T00:15:58;36.72;35.80;38.28;;
66455;Laerm;57651;51.438;5.982;2022-09-30T00:16:09;36.73;35.65;38.26;;
66455;Laerm;57651;51.438;5.982;2022-09-30T00:16:33;36.74;35.76;38.80;;
66455;Laerm;57651;51.438;5.982;2022-09-30T00:16:44;36.72;35.20;38.90;;
66455;Laerm;57651;51.438;5.982;2022-09-30T00:16:55;36.72;35.73;38.91;;
66455;Laerm;57651;51.438;5.982;2022-09-30T00:17:06;36.72;35.29;38.36;;
66455;Laerm;57651;51.438;5.982;2022-09-30T00:17:16;36.76;35.70;38.47;;
66455;Laerm;57651;51.438;5.982;2022-09-30T00:17:27;36.74;35.47;38.75;;
66455;Laerm;57651;51.438;5.982;2022-09-30T00:17:38;36.70;35.52;38.29;;
66455;Laerm;57651;51.438;5.982;2022-09-30T00:17:49;36.73;35.55;38.43;;
66455;Laerm;57651;51.438;5.982;2022-09-30T00:17:59;36.69;35.75;38.60;;
66455;Laerm;57651;51.438;5.982;2022-09-30T00:18:09;36.72;35.70;38.76;;
66455;Laerm;57651;51.438;5.982;2022-09-30T00:18:20;36.69;34.99;38.52;;
66455;Laerm;57651;51.438;5.982;2022-09-30T00:18:31;36.75;35.47;38.20;;
66455;Laerm;57651;51.438;5.982;2022-09-30T00:18:43;36.73;35.66;38.77;;
66455;Laerm;57651;51.438;5.982;2022-09-30T00:18:54;36.73;35.69;38.51;;
66455;Laerm;57651;51.438;5.982;2022-09-30T00:19:06;36.76;35.49;38.62;;
66455;Laerm;57651;51.438;5.982;2022-09-30T00:19:19;36.70;35.75;38.08;;
66455;Laerm;57651;51.438;5.982;2022-09-30T00:19:30;36.72;35.72;38.45;;
66455;Laerm;57651;51.438;5.982;2022-09-30T00:19:40;36.65;35.32;38.10;;
66455;Laerm;57651;51.438;5.982;2022-09-30T00:19:51;36.72;35.66;38.74;;
66455;Laerm;57651;51.438;5.982;2022-09-30T00:20:28;36.69;35.60;38.59;;
66455;Laerm;57651;51.438;5.982;2022-09-30T00:20:38;36.73;35.60;38.63;;
66455;Laerm;57651;51.438;5.982;2022-09-30T00:21:18;36.73;35.46;38.99;;
66455;Laerm;57651;51.438;5.982;2022-09-30T00:21:29;36.71;35.62;39.28;;
66455;Laerm;57651;51.438;5.982;2022-09-30T00:21:45;36.69;35.51;38.35;;
66455;Laerm;57651;51.438;5.982;2022-09-30T00:21:55;36.69;35.54;38.33;;
66455;Laerm;57651;51.438;5.982;2022-09-30T00:22:05;36.68;35.52;38.41;;
66455;Laerm;57651;51.438;5.982;2022-09-30T00:22:16;36.73;35.53;38.48;;
66455;Laerm;57651;51.438;5.982;2022-09-30T00:22:26;36.76;35.53;38.96;;
66455;Laerm;57651;51.438;5.982;2022-09-30T00:22:40;36.72;35.57;38.44;;
66455;Laerm;57651;51.438;5.982;2022-09-30T00:22:50;36.70;35.53;38.53;;
66455;Laerm;57651;51.438;5.982;2022-09-30T00:23:01;36.72;35.46;38.46;;
66455;Laerm;57651;51.438;5.982;2022-09-30T00:23:12;36.71;35.58;38.84;;
66455;Laerm;57651;51.438;5.982;2022-09-30T00:23:23;36.73;35.41;38.69;;
66455;Laerm;57651;51.438;5.982;2022-09-30T00:23:40;36.71;35.63;38.99;;
66455;Laerm;57651;51.438;5.982;2022-09-30T00:23:51;36.72;35.56;38.40;;
66455;Laerm;57651;51.438;5.982;2022-09-30T00:24:03;36.69;35.65;38.24;;
66455;Laerm;57651;51.438;5.982;2022-09-30T00:24:14;36.71;35.60;38.70;;
66455;Laerm;57651;51.438;5.982;2022-09-30T00:24:25;36.73;35.59;38.78;;
66455;Laerm;57651;51.438;5.982;2022-09-30T00:25:27;36.72;35.56;39.54;;
66455;Laerm;57651;51.438;5.982;2022-09-30T00:25:38;36.72;35.82;38.69;;
66455;Laerm;57651;51.438;5.982;2022-09-30T00:25:49;36.69;35.59;38.57;;
66455;Laerm;57651;51.438;5.982;2022-09-30T00:26:01;36.73;35.70;38.68;;
66455;Laerm;57651;51.438;5.982;2022-09-30T00:26:13;36.70;35.62;38.44;;
66455;Laerm;57651;51.438;5.982;2022-09-30T00:26:24;36.70;35.63;38.15;;
66455;Laerm;57651;51.438;5.982;2022-09-30T00:26:35;36.71;35.52;38.21;;
66455;Laerm;57651;51.438;5.982;2022-09-30T00:26:49;36.65;35.54;38.74;;
66455;Laerm;57651;51.438;5.982;2022-09-30T00:27:00;36.70;35.65;39.05;;
66455;Laerm;57651;51.438;5.982;2022-09-30T00:27:11;36.71;35.66;38.95;;
66455;Laerm;57651;51.438;5.982;2022-09-30T00:27:21;36.65;35.52;38.12;;
66455;Laerm;57651;51.438;5.982;2022-09-30T00:27:35;36.69;35.72;38.63;;
66455;Laerm;57651;51.438;5.982;2022-09-30T00:27:56;36.66;35.66;38.61;;
66455;Laerm;57651;51.438;5.982;2022-09-30T00:28:06;36.71;35.56;39.23;;
66455;Laerm;57651;51.438;5.982;2022-09-30T00:28:17;36.68;35.57;38.27;;
66455;Laerm;57651;51.438;5.982;2022-09-30T00:28:28;36.68;35.75;38.43;;
66455;Laerm;57651;51.438;5.982;2022-09-30T00:28:39;36.65;35.67;39.01;;
66455;Laerm;57651;51.438;5.982;2022-09-30T00:28:54;36.66;35.65;38.45;;
66455;Laerm;57651;51.438;5.982;2022-09-30T00:29:06;36.69;35.67;38.71;;
66455;Laerm;57651;51.438;5.982;2022-09-30T00:29:55;36.69;35.46;38.97;;
66455;Laerm;57651;51.438;5.982;2022-09-30T00:30:08;36.65;35.51;38.20;;
66455;Laerm;57651;51.438;5.982;2022-09-30T00:30:19;36.66;35.61;38.30;;
66455;Laerm;57651;51.438;5.982;2022-09-30T00:30:38;36.72;35.43;39.36;;
66455;Laerm;57651;51.438;5.982;2022-09-30T00:30:48;36.71;35.44;38.97;;
66455;Laerm;57651;51.438;5.982;2022-09-30T00:31:00;36.63;35.47;38.41;;
66455;Laerm;57651;51.438;5.982;2022-09-30T00:31:12;36.68;35.68;39.47;;
66455;Laerm;57651;51.438;5.982;2022-09-30T00:31:31;36.66;35.64;38.48;;
66455;Laerm;57651;51.438;5.982;2022-09-30T00:31:42;36.66;35.69;38.97;;
66455;Laerm;57651;51.438;5.982;2022-09-30T00:31:52;36.67;35.61;38.69;;
66455;Laerm;57651;51.438;5.982;2022-09-30T00:32:03;36.64;35.44;38.49;;
66455;Laerm;57651;51.438;5.982;2022-09-30T00:33:08;36.68;35.38;38.96;;
66455;Laerm;57651;51.438;5.982;2022-09-30T00:33:18;36.65;35.53;38.53;;
66455;Laerm;57651;51.438;5.982;2022-09-30T00:33:47;36.70;35.68;38.36;;
66455;Laerm;57651;51.438;5.982;2022-09-30T00:34:15;36.67;35.44;38.69;;
66455;Laerm;57651;51.438;5.982;2022-09-30T00:34:26;36.72;35.77;38.58;;
66455;Laerm;57651;51.438;5.982;2022-09-30T00:34:36;36.67;35.48;38.41;;
66455;Laerm;57651;51.438;5.982;2022-09-30T00:34:47;36.66;35.44;38.83;;
66455;Laerm;57651;51.438;5.982;2022-09-30T00:34:57;36.71;35.70;38.29;;
66455;Laerm;57651;51.438;5.982;2022-09-30T00:35:08;36.65;35.72;38.54;;
66455;Laerm;57651;51.438;5.982;2022-09-30T00:35:18;36.64;35.19;38.44;;
66455;Laerm;57651;51.438;5.982;2022-09-30T00:35:34;36.64;35.46;38.42;;
66455;Laerm;57651;51.438;5.982;2022-09-30T00:35:51;36.66;35.34;38.19;;
66455;Laerm;57651;51.438;5.982;2022-09-30T00:36:02;36.69;35.23;38.57;;
66455;Laerm;57651;51.438;5.982;2022-09-30T00:36:12;36.66;35.46;38.67;;
66455;Laerm;57651;51.438;5.982;2022-09-30T00:36:23;36.63;35.52;38.86;;
66455;Laerm;57651;51.438;5.982;2022-09-30T00:36:45;36.63;35.58;38.24;;
66455;Laerm;57651;51.438;5.982;2022-09-30T00:36:56;36.68;35.52;38.57;;
66455;Laerm;57651;51.438;5.982;2022-09-30T00:37:07;36.66;35.64;38.42;;
66455;Laerm;57651;51.438;5.982;2022-09-30T00:37:17;36.62;35.63;39.09;;
66455;Laerm;57651;51.438;5.982;2022-09-30T00:37:28;36.66;35.72;38.99;;
66455;Laerm;57651;51.438;5.982;2022-09-30T00:37:38;36.60;35.63;38.43;;
66455;Laerm;57651;51.438;5.982;2022-09-30T00:37:49;36.64;35.73;38.46;;
66455;Laerm;57651;51.438;5.982;2022-09-30T00:37:59;36.66;35.40;38.60;;
66455;Laerm;57651;51.438;5.982;2022-09-30T00:38:10;36.67;35.66;38.46;;
66455;Laerm;57651;51.438;5.982;2022-09-30T00:38:20;36.61;35.60;38.43;;
66455;Laerm;57651;51.438;5.982;2022-09-30T00:38:30;36.65;35.46;38.64;;
66455;Laerm;57651;51.438;5.982;2022-09-30T00:38:41;36.62;35.58;38.35;;
66455;Laerm;57651;51.438;5.982;2022-09-30T00:38:51;36.70;35.48;38.32;;
66455;Laerm;57651;51.438;5.982;2022-09-30T00:39:02;36.67;35.57;38.41;;
66455;Laerm;57651;51.438;5.982;2022-09-30T00:39:14;36.68;35.34;38.53;;
66455;Laerm;57651;51.438;5.982;2022-09-30T00:39:26;36.60;35.64;38.53;;
66455;Laerm;57651;51.438;5.982;2022-09-30T00:39:37;36.62;35.26;38.56;;
66455;Laerm;57651;51.438;5.982;2022-09-30T00:39:47;36.62;35.43;39.14;;
66455;Laerm;57651;51.438;5.982;2022-09-30T00:39:57;36.69;35.56;38.61;;
66455;Laerm;57651;51.438;5.982;2022-09-30T00:40:08;36.62;35.53;38.45;;
66455;Laerm;57651;51.438;5.982;2022-09-30T00:40:20;36.62;35.19;38.37;;
66455;Laerm;57651;51.438;5.982;2022-09-30T00:40:31;36.61;35.66;38.39;;
66455;Laerm;57651;51.438;5.982;2022-09-30T00:40:42;36.62;35.52;38.52;;
66455;Laerm;57651;51.438;5.982;2022-09-30T00:40:52;36.64;35.64;38.19;;
66455;Laerm;57651;51.438;5.982;2022-09-30T00:41:03;36.57;35.52;38.66;;
66455;Laerm;57651;51.438;5.982;2022-09-30T00:41:14;36.64;35.60;37.89;;
66455;Laerm;57651;51.438;5.982;2022-09-30T00:41:24;36.59;35.47;38.83;;
66455;Laerm;57651;51.438;5.982;2022-09-30T00:41:35;36.60;35.37;39.40;;
66455;Laerm;57651;51.438;5.982;2022-09-30T00:41:48;36.64;35.60;38.02;;
66455;Laerm;57651;51.438;5.982;2022-09-30T00:42:01;36.59;35.28;38.84;;
66455;Laerm;57651;51.438;5.982;2022-09-30T00:42:13;36.56;35.51;38.76;;
66455;Laerm;57651;51.438;5.982;2022-09-30T00:42:24;36.59;35.51;38.68;;
66455;Laerm;57651;51.438;5.982;2022-09-30T00:42:35;36.62;35.52;38.21;;
66455;Laerm;57651;51.438;5.982;2022-09-30T00:42:49;36.59;35.55;38.49;;
66455;Laerm;57651;51.438;5.982;2022-09-30T00:43:00;36.61;35.48;38.47;;
66455;Laerm;57651;51.438;5.982;2022-09-30T00:43:11;36.59;35.46;38.47;;
66455;Laerm;57651;51.438;5.982;2022-09-30T00:43:46;36.60;35.58;38.62;;
66455;Laerm;57651;51.438;5.982;2022-09-30T00:44:37;36.60;35.34;38.47;;
66455;Laerm;57651;51.438;5.982;2022-09-30T00:44:52;36.59;35.40;38.29;;
66455;Laerm;57651;51.438;5.982;2022-09-30T00:45:04;36.58;35.14;38.83;;
66455;Laerm;57651;51.438;5.982;2022-09-30T00:45:15;36.56;35.46;38.56;;
66455;Laerm;57651;51.438;5.982;2022-09-30T00:45:27;36.58;35.61;38.33;;
66455;Laerm;57651;51.438;5.982;2022-09-30T00:45:38;36.56;35.48;38.18;;
66455;Laerm;57651;51.438;5.982;2022-09-30T00:45:55;36.57;35.45;38.96;;
66455;Laerm;57651;51.438;5.982;2022-09-30T00:46:10;36.55;35.56;38.73;;
66455;Laerm;57651;51.438;5.982;2022-09-30T00:46:35;36.57;35.44;38.50;;
66455;Laerm;57651;51.438;5.982;2022-09-30T00:46:47;36.60;35.48;38.63;;
66455;Laerm;57651;51.438;5.982;2022-09-30T00:46:57;36.60;35.46;38.26;;
66455;Laerm;57651;51.438;5.982;2022-09-30T00:47:32;36.59;35.56;38.49;;
66455;Laerm;57651;51.438;5.982;2022-09-30T00:47:40;36.57;35.41;38.47;;
66455;Laerm;57651;51.438;5.982;2022-09-30T00:48:03;36.57;35.37;38.32;;
66455;Laerm;57651;51.438;5.982;2022-09-30T00:48:18;36.54;35.40;37.93;;
66455;Laerm;57651;51.438;5.982;2022-09-30T00:48:31;36.56;35.37;38.43;;
66455;Laerm;57651;51.438;5.982;2022-09-30T00:48:44;36.60;35.61;38.17;;
66455;Laerm;57651;51.438;5.982;2022-09-30T00:48:57;36.54;35.36;38.48;;
66455;Laerm;57651;51.438;5.982;2022-09-30T00:49:13;36.57;35.42;38.66;;
66455;Laerm;57651;51.438;5.982;2022-09-30T00:49:24;36.58;35.41;39.27;;
66455;Laerm;57651;51.438;5.982;2022-09-30T00:49:35;36.60;35.29;38.27;;
66455;Laerm;57651;51.438;5.982;2022-09-30T00:49:46;36.58;35.53;38.24;;
66455;Laerm;57651;51.438;5.982;2022-09-30T00:49:57;36.55;35.38;38.34;;
66455;Laerm;57651;51.438;5.982;2022-09-30T00:50:11;36.57;35.16;38.38;;
66455;Laerm;57651;51.438;5.982;2022-09-30T00:50:32;36.55;35.48;38.60;;
66455;Laerm;57651;51.438;5.982;2022-09-30T00:50:44;36.57;35.39;38.36;;
66455;Laerm;57651;51.438;5.982;2022-09-30T00:50:56;36.60;35.43;38.09;;
66455;Laerm;57651;51.438;5.982;2022-09-30T00:51:07;36.49;35.43;37.97;;
66455;Laerm;57651;51.438;5.982;2022-09-30T00:51:23;36.52;35.31;38.47;;
66455;Laerm;57651;51.438;5.982;2022-09-30T00:51:40;36.53;35.15;38.44;;
66455;Laerm;57651;51.438;5.982;2022-09-30T00:51:54;36.53;35.24;38.45;;
66455;Laerm;57651;51.438;5.982;2022-09-30T00:52:05;36.55;35.41;38.59;;
66455;Laerm;57651;51.438;5.982;2022-09-30T00:52:19;36.57;35.60;38.52;;
66455;Laerm;57651;51.438;5.982;2022-09-30T00:52:29;36.55;35.35;38.57;;
66455;Laerm;57651;51.438;5.982;2022-09-30T00:52:42;36.52;35.41;38.60;;
66455;Laerm;57651;51.438;5.982;2022-09-30T00:53:04;36.53;35.50;38.63;;
66455;Laerm;57651;51.438;5.982;2022-09-30T00:53:17;36.54;35.28;38.86;;
66455;Laerm;57651;51.438;5.982;2022-09-30T00:53:38;36.55;35.51;38.43;;
66455;Laerm;57651;51.438;5.982;2022-09-30T00:53:54;36.56;35.40;38.48;;
66455;Laerm;57651;51.438;5.982;2022-09-30T00:54:11;36.58;35.39;38.41;;
66455;Laerm;57651;51.438;5.982;2022-09-30T00:54:25;36.59;35.47;38.33;;
66455;Laerm;57651;51.438;5.982;2022-09-30T00:54:37;36.57;35.43;38.31;;
66455;Laerm;57651;51.438;5.982;2022-09-30T00:54:48;36.52;35.42;38.00;;
66455;Laerm;57651;51.438;5.982;2022-09-30T00:55:00;36.56;35.35;38.45;;
66455;Laerm;57651;51.438;5.982;2022-09-30T00:55:19;36.55;35.40;37.97;;
66455;Laerm;57651;51.438;5.982;2022-09-30T00:55:54;36.61;35.28;38.43;;
66455;Laerm;57651;51.438;5.982;2022-09-30T00:56:22;36.60;35.15;38.32;;
66455;Laerm;57651;51.438;5.982;2022-09-30T00:56:36;36.56;35.13;38.24;;
66455;Laerm;57651;51.438;5.982;2022-09-30T00:56:49;36.57;35.15;38.90;;
66455;Laerm;57651;51.438;5.982;2022-09-30T00:57:02;36.62;35.40;38.25;;
66455;Laerm;57651;51.438;5.982;2022-09-30T00:57:13;36.60;35.31;38.71;;
66455;Laerm;57651;51.438;5.982;2022-09-30T00:57:23;36.65;35.49;38.67;;
66455;Laerm;57651;51.438;5.982;2022-09-30T00:57:34;36.59;35.45;39.02;;
66455;Laerm;57651;51.438;5.982;2022-09-30T00:57:45;36.59;35.49;38.78;;
66455;Laerm;57651;51.438;5.982;2022-09-30T00:57:56;36.58;35.49;38.04;;
66455;Laerm;57651;51.438;5.982;2022-09-30T00:58:08;36.64;35.55;38.87;;
66455;Laerm;57651;51.438;5.982;2022-09-30T00:58:28;36.64;35.39;38.50;;
66455;Laerm;57651;51.438;5.982;2022-09-30T00:59:22;36.57;35.29;38.36;;
66455;Laerm;57651;51.438;5.982;2022-09-30T00:59:39;36.61;35.67;38.80;;
66455;Laerm;57651;51.438;5.982;2022-09-30T00:59:50;36.65;35.43;38.38;;
66455;Laerm;57651;51.438;5.982;2022-09-30T01:00:02;36.60;35.46;38.14;;
66455;Laerm;57651;51.438;5.982;2022-09-30T01:00:13;36.55;35.50;38.41;;
66455;Laerm;57651;51.438;5.982;2022-09-30T01:00:24;36.63;35.51;38.97;;
66455;Laerm;57651;51.438;5.982;2022-09-30T01:00:34;36.61;35.63;38.44;;
66455;Laerm;57651;51.438;5.982;2022-09-30T01:00:45;36.61;35.54;38.73;;
66455;Laerm;57651;51.438;5.982;2022-09-30T01:00:56;36.62;35.43;38.30;;
66455;Laerm;57651;51.438;5.982;2022-09-30T01:01:11;36.61;35.46;38.32;;
66455;Laerm;57651;51.438;5.982;2022-09-30T01:01:24;36.58;35.46;38.31;;
66455;Laerm;57651;51.438;5.982;2022-09-30T01:01:37;36.55;35.57;38.07;;
66455;Laerm;57651;51.438;5.982;2022-09-30T01:01:48;36.59;35.39;38.30;;
66455;Laerm;57651;51.438;5.982;2022-09-30T01:01:59;36.62;35.40;39.01;;
66455;Laerm;57651;51.438;5.982;2022-09-30T01:02:10;36.62;35.52;38.46;;
66455;Laerm;57651;51.438;5.982;2022-09-30T01:02:23;36.60;35.43;38.23;;
66455;Laerm;57651;51.438;5.982;2022-09-30T01:02:34;36.57;35.53;39.10;;
66455;Laerm;57651;51.438;5.982;2022-09-30T01:02:46;36.61;35.43;38.55;;
66455;Laerm;57651;51.438;5.982;2022-09-30T01:02:57;36.59;35.66;38.35;;
66455;Laerm;57651;51.438;5.982;2022-09-30T01:03:08;36.56;35.63;38.34;;
66455;Laerm;57651;51.438;5.982;2022-09-30T01:03:18;36.58;35.60;38.14;;
66455;Laerm;57651;51.438;5.982;2022-09-30T01:03:44;36.57;35.46;38.39;;
66455;Laerm;57651;51.438;5.982;2022-09-30T01:04:05;36.57;35.45;38.70;;
66455;Laerm;57651;51.438;5.982;2022-09-30T01:04:20;36.63;35.23;38.98;;
66455;Laerm;57651;51.438;5.982;2022-09-30T01:04:32;36.60;35.41;38.57;;
66455;Laerm;57651;51.438;5.982;2022-09-30T01:04:44;36.57;35.64;38.13;;
66455;Laerm;57651;51.438;5.982;2022-09-30T01:04:56;36.55;35.43;38.71;;
66455;Laerm;57651;51.438;5.982;2022-09-30T01:05:06;36.56;35.47;38.18;;
66455;Laerm;57651;51.438;5.982;2022-09-30T01:05:18;36.55;35.12;38.62;;
66455;Laerm;57651;51.438;5.982;2022-09-30T01:05:29;36.62;35.49;38.73;;
66455;Laerm;57651;51.438;5.982;2022-09-30T01:05:41;36.57;35.43;38.36;;
66455;Laerm;57651;51.438;5.982;2022-09-30T01:05:52;36.60;35.80;38.08;;
66455;Laerm;57651;51.438;5.982;2022-09-30T01:06:03;36.61;35.63;38.45;;
66455;Laerm;57651;51.438;5.982;2022-09-30T01:06:13;36.58;35.56;38.23;;
66455;Laerm;57651;51.438;5.982;2022-09-30T01:06:24;36.57;35.57;38.15;;
66455;Laerm;57651;51.438;5.982;2022-09-30T01:06:35;36.58;35.42;38.39;;
66455;Laerm;57651;51.438;5.982;2022-09-30T01:06:45;36.61;35.38;38.36;;
66455;Laerm;57651;51.438;5.982;2022-09-30T01:07:14;36.55;35.36;38.41;;
66455;Laerm;57651;51.438;5.982;2022-09-30T01:07:25;36.58;35.35;38.67;;
66455;Laerm;57651;51.438;5.982;2022-09-30T01:07:37;36.52;35.62;38.57;;
66455;Laerm;57651;51.438;5.982;2022-09-30T01:07:47;36.54;35.53;38.48;;
66455;Laerm;57651;51.438;5.982;2022-09-30T01:08:00;36.55;35.35;38.31;;
66455;Laerm;57651;51.438;5.982;2022-09-30T01:08:12;36.59;35.42;38.60;;
66455;Laerm;57651;51.438;5.982;2022-09-30T01:08:23;36.63;35.67;38.94;;
66455;Laerm;57651;51.438;5.982;2022-09-30T01:08:35;36.58;35.65;38.29;;
66455;Laerm;57651;51.438;5.982;2022-09-30T01:08:47;36.59;35.34;38.11;;
66455;Laerm;57651;51.438;5.982;2022-09-30T01:08:57;36.58;35.54;38.47;;
66455;Laerm;57651;51.438;5.982;2022-09-30T01:09:09;36.58;35.55;38.39;;
66455;Laerm;57651;51.438;5.982;2022-09-30T01:09:20;36.60;35.64;38.37;;
66455;Laerm;57651;51.438;5.982;2022-09-30T01:09:32;36.57;35.51;38.29;;
66455;Laerm;57651;51.438;5.982;2022-09-30T01:09:42;36.62;35.45;38.09;;
66455;Laerm;57651;51.438;5.982;2022-09-30T01:09:53;36.63;35.53;38.59;;
66455;Laerm;57651;51.438;5.982;2022-09-30T01:10:06;36.60;35.46;38.89;;
66455;Laerm;57651;51.438;5.982;2022-09-30T01:10:17;36.63;35.51;38.53;;
66455;Laerm;57651;51.438;5.982;2022-09-30T01:10:27;36.63;35.20;38.20;;
66455;Laerm;57651;51.438;5.982;2022-09-30T01:10:38;36.57;35.63;38.15;;
66455;Laerm;57651;51.438;5.982;2022-09-30T01:10:57;36.61;35.45;38.80;;
66455;Laerm;57651;51.438;5.982;2022-09-30T01:11:08;36.58;35.56;38.50;;
66455;Laerm;57651;51.438;5.982;2022-09-30T01:11:19;36.60;35.45;38.23;;
66455;Laerm;57651;51.438;5.982;2022-09-30T01:11:30;36.55;35.35;37.88;;
66455;Laerm;57651;51.438;5.982;2022-09-30T01:11:40;36.63;35.59;38.27;;
66455;Laerm;57651;51.438;5.982;2022-09-30T01:11:54;36.62;35.57;39.04;;
66455;Laerm;57651;51.438;5.982;2022-09-30T01:12:09;36.63;35.57;38.50;;
66455;Laerm;57651;51.438;5.982;2022-09-30T01:12:21;36.59;35.23;38.27;;
66455;Laerm;57651;51.438;5.982;2022-09-30T01:12:33;36.61;35.63;38.19;;
66455;Laerm;57651;51.438;5.982;2022-09-30T01:12:44;36.61;35.62;38.51;;
66455;Laerm;57651;51.438;5.982;2022-09-30T01:12:55;36.57;35.47;38.19;;
66455;Laerm;57651;51.438;5.982;2022-09-30T01:13:09;36.59;35.46;38.38;;
66455;Laerm;57651;51.438;5.982;2022-09-30T01:13:23;36.61;35.71;38.50;;
66455;Laerm;57651;51.438;5.982;2022-09-30T01:13:35;36.60;35.44;38.04;;
66455;Laerm;57651;51.438;5.982;2022-09-30T01:13:48;36.58;35.50;38.33;;
66455;Laerm;57651;51.438;5.982;2022-09-30T01:14:02;36.63;35.20;38.45;;
66455;Laerm;57651;51.438;5.982;2022-09-30T01:14:16;36.63;35.39;38.81;;
66455;Laerm;57651;51.438;5.982;2022-09-30T01:14:27;36.54;35.51;38.00;;
66455;Laerm;57651;51.438;5.982;2022-09-30T01:14:38;36.57;35.16;38.10;;
66455;Laerm;57651;51.438;5.982;2022-09-30T01:14:49;36.57;35.64;38.29;;
66455;Laerm;57651;51.438;5.982;2022-09-30T01:15:02;36.60;35.57;38.50;;
66455;Laerm;57651;51.438;5.982;2022-09-30T01:15:14;36.59;35.41;38.45;;
66455;Laerm;57651;51.438;5.982;2022-09-30T01:16:17;36.62;35.27;38.65;;
66455;Laerm;57651;51.438;5.982;2022-09-30T01:17:46;36.56;35.37;38.44;;
66455;Laerm;57651;51.438;5.982;2022-09-30T01:18:45;36.56;35.52;38.22;;
66455;Laerm;57651;51.438;5.982;2022-09-30T01:22:08;36.59;35.24;38.96;;
66455;Laerm;57651;51.438;5.982;2022-09-30T01:23:43;36.52;35.42;38.19;;
66455;Laerm;57651;51.438;5.982;2022-09-30T01:24:46;36.57;35.32;38.93;;
66455;Laerm;57651;51.438;5.982;2022-09-30T01:29:43;36.57;35.37;38.56;;
66455;Laerm;57651;51.438;5.982;2022-09-30T01:30:05;36.57;35.36;38.85;;
66455;Laerm;57651;51.438;5.982;2022-09-30T01:32:19;36.57;35.22;38.37;;
66455;Laerm;57651;51.438;5.982;2022-09-30T01:32:34;36.56;35.41;38.38;;
66455;Laerm;57651;51.438;5.982;2022-09-30T01:33:03;36.59;35.41;38.46;;
66455;Laerm;57651;51.438;5.982;2022-09-30T01:33:39;36.58;35.29;38.08;;
66455;Laerm;57651;51.438;5.982;2022-09-30T01:38:12;36.52;35.37;38.37;;
66455;Laerm;57651;51.438;5.982;2022-09-30T01:38:32;36.55;35.37;38.81;;
66455;Laerm;57651;51.438;5.982;2022-09-30T01:39:34;36.52;35.52;38.15;;
66455;Laerm;57651;51.438;5.982;2022-09-30T01:40:04;36.51;35.30;38.24;;
66455;Laerm;57651;51.438;5.982;2022-09-30T01:40:39;36.53;35.48;38.54;;
66455;Laerm;57651;51.438;5.982;2022-09-30T01:41:04;36.49;35.03;38.85;;
66455;Laerm;57651;51.438;5.982;2022-09-30T01:41:21;36.47;35.48;38.11;;
66455;Laerm;57651;51.438;5.982;2022-09-30T01:41:41;36.52;35.24;38.23;;
66455;Laerm;57651;51.438;5.982;2022-09-30T01:42:19;36.56;35.34;38.91;;
66455;Laerm;57651;51.438;5.982;2022-09-30T01:42:45;36.53;35.52;38.52;;
66455;Laerm;57651;51.438;5.982;2022-09-30T01:43:05;36.46;35.31;38.50;;
66455;Laerm;57651;51.438;5.982;2022-09-30T01:44:01;36.48;35.39;38.20;;
66455;Laerm;57651;51.438;5.982;2022-09-30T01:45:01;36.51;35.50;39.24;;
66455;Laerm;57651;51.438;5.982;2022-09-30T01:45:33;36.48;35.35;38.98;;
66455;Laerm;57651;51.438;5.982;2022-09-30T01:45:57;36.44;35.17;38.53;;
66455;Laerm;57651;51.438;5.982;2022-09-30T01:46:55;36.43;35.15;38.72;;
66455;Laerm;57651;51.438;5.982;2022-09-30T01:47:26;36.43;35.21;38.13;;
66455;Laerm;57651;51.438;5.982;2022-09-30T01:48:14;36.41;35.04;38.17;;
66455;Laerm;57651;51.438;5.982;2022-09-30T01:48:57;36.47;35.42;38.16;;
66455;Laerm;57651;51.438;5.982;2022-09-30T01:50:55;36.45;35.14;38.68;;
66455;Laerm;57651;51.438;5.982;2022-09-30T01:51:09;36.46;35.15;38.20;;
66455;Laerm;57651;51.438;5.982;2022-09-30T01:53:45;36.46;35.25;39.59;;
66455;Laerm;57651;51.438;5.982;2022-09-30T01:54:04;36.48;35.24;38.70;;
66455;Laerm;57651;51.438;5.982;2022-09-30T01:54:25;36.49;35.25;38.71;;
66455;Laerm;57651;51.438;5.982;2022-09-30T01:55:34;36.50;35.40;38.58;;
66455;Laerm;57651;51.438;5.982;2022-09-30T01:57:44;36.45;35.29;38.02;;
66455;Laerm;57651;51.438;5.982;2022-09-30T01:58:06;36.46;35.24;38.31;;
66455;Laerm;57651;51.438;5.982;2022-09-30T01:59:43;36.47;35.16;39.08;;
66455;Laerm;57651;51.438;5.982;2022-09-30T01:59:58;36.48;35.43;38.40;;
66455;Laerm;57651;51.438;5.982;2022-09-30T02:00:12;36.48;35.51;38.30;;
66455;Laerm;57651;51.438;5.982;2022-09-30T02:00:52;36.45;35.21;38.16;;
66455;Laerm;57651;51.438;5.982;2022-09-30T02:01:07;36.44;35.36;38.36;;
66455;Laerm;57651;51.438;5.982;2022-09-30T02:01:24;36.44;35.08;38.46;;
66455;Laerm;57651;51.438;5.982;2022-09-30T02:03:06;36.45;35.34;39.08;;